sensor_id;sensor_type;location;lat;lon;timestamp;pressure;altitude;pressure_sealevel;temperature;humidity
46682;BME280;34101;53.430;-2.224;2023-12-20T00:02:12;101364.65;;;9.49;73.03
46682;BME280;34101;53.430;-2.224;2023-12-20T00:04:40;101359.01;;;9.39;72.98
46682;BME280;34101;53.430;-2.224;2023-12-20T00:07:07;101359.20;;;9.59;72.48
46682;BME280;34101;53.430;-2.224;2023-12-20T00:09:34;101366.65;;;9.48;72.88
46682;BME280;34101;53.430;-2.224;2023-12-20T00:12:02;101361.31;;;9.80;72.07
46682;BME280;34101;53.430;-2.224;2023-12-20T00:14:30;101361.58;;;9.81;71.86
46682;BME280;34101;53.430;-2.224;2023-12-20T00:16:58;101360.14;;;9.60;72.23
46682;BME280;34101;53.430;-2.224;2023-12-20T00:19:26;101371.10;;;9.81;71.80
46682;BME280;34101;53.430;-2.224;2023-12-20T00:21:53;101365.33;;;9.76;72.06
46682;BME280;34101;53.430;-2.224;2023-12-20T00:24:21;101369.75;;;9.55;72.85
46682;BME280;34101;53.430;-2.224;2023-12-20T00:26:48;101365.90;;;9.90;72.10
46682;BME280;34101;53.430;-2.224;2023-12-20T00:29:15;101363.10;;;9.41;73.13
46682;BME280;34101;53.430;-2.224;2023-12-20T00:31:42;101371.80;;;9.58;72.79
46682;BME280;34101;53.430;-2.224;2023-12-20T00:34:10;101358.65;;;9.86;72.31
46682;BME280;34101;53.430;-2.224;2023-12-20T00:36:37;101373.91;;;9.78;71.54
46682;BME280;34101;53.430;-2.224;2023-12-20T00:39:05;101371.54;;;9.81;71.78
46682;BME280;34101;53.430;-2.224;2023-12-20T00:41:32;101369.28;;;9.66;72.28
46682;BME280;34101;53.430;-2.224;2023-12-20T00:44:00;101368.71;;;9.87;70.99
46682;BME280;34101;53.430;-2.224;2023-12-20T00:46:27;101372.34;;;9.91;70.89
46682;BME280;34101;53.430;-2.224;2023-12-20T00:48:55;101365.66;;;9.93;70.60
46682;BME280;34101;53.430;-2.224;2023-12-20T00:51:22;101366.83;;;9.86;70.98
46682;BME280;34101;53.430;-2.224;2023-12-20T00:53:50;101365.30;;;9.80;71.70
46682;BME280;34101;53.430;-2.224;2023-12-20T00:56:18;101356.69;;;9.93;71.16
46682;BME280;34101;53.430;-2.224;2023-12-20T00:58:45;101359.21;;;9.68;71.82
46682;BME280;34101;53.430;-2.224;2023-12-20T01:01:13;101354.68;;;9.91;71.40
46682;BME280;34101;53.430;-2.224;2023-12-20T01:03:45;101355.36;;;9.87;71.59
46682;BME280;34101;53.430;-2.224;2023-12-20T01:06:12;101347.95;;;9.88;71.51
46682;BME280;34101;53.430;-2.224;2023-12-20T01:08:40;101332.91;;;9.70;72.40
46682;BME280;34101;53.430;-2.224;2023-12-20T01:11:07;101340.82;;;10.00;71.60
46682;BME280;34101;53.430;-2.224;2023-12-20T01:13:35;101338.00;;;9.68;73.34
46682;BME280;34101;53.430;-2.224;2023-12-20T01:16:03;101345.23;;;9.60;73.79
46682;BME280;34101;53.430;-2.224;2023-12-20T01:18:31;101341.83;;;9.79;73.50
46682;BME280;34101;53.430;-2.224;2023-12-20T01:21:02;101341.89;;;9.42;74.62
46682;BME280;34101;53.430;-2.224;2023-12-20T01:23:29;101346.65;;;9.69;74.23
46682;BME280;34101;53.430;-2.224;2023-12-20T01:25:58;101343.17;;;9.57;74.55
46682;BME280;34101;53.430;-2.224;2023-12-20T01:28:26;101343.43;;;9.74;73.81
46682;BME280;34101;53.430;-2.224;2023-12-20T01:30:54;101342.53;;;9.64;74.41
46682;BME280;34101;53.430;-2.224;2023-12-20T01:33:22;101336.22;;;9.61;73.94
46682;BME280;34101;53.430;-2.224;2023-12-20T01:35:49;101334.27;;;9.95;73.44
46682;BME280;34101;53.430;-2.224;2023-12-20T01:38:17;101332.26;;;9.85;73.85
46682;BME280;34101;53.430;-2.224;2023-12-20T01:40:44;101325.02;;;9.73;74.00
46682;BME280;34101;53.430;-2.224;2023-12-20T01:43:12;101313.06;;;9.77;73.77
46682;BME280;34101;53.430;-2.224;2023-12-20T01:45:40;101315.45;;;9.78;74.08
46682;BME280;34101;53.430;-2.224;2023-12-20T01:48:08;101314.78;;;9.88;73.86
46682;BME280;34101;53.430;-2.224;2023-12-20T01:50:37;101317.18;;;9.87;73.58
46682;BME280;34101;53.430;-2.224;2023-12-20T01:53:09;101322.19;;;9.57;74.94
46682;BME280;34101;53.430;-2.224;2023-12-20T01:55:40;101312.33;;;9.89;73.63
46682;BME280;34101;53.430;-2.224;2023-12-20T01:58:09;101312.91;;;9.57;74.79
46682;BME280;34101;53.430;-2.224;2023-12-20T02:00:37;101310.03;;;9.74;74.26
46682;BME280;34101;53.430;-2.224;2023-12-20T02:03:05;101312.18;;;9.80;74.15
46682;BME280;34101;53.430;-2.224;2023-12-20T02:05:34;101314.40;;;9.76;74.30
46682;BME280;34101;53.430;-2.224;2023-12-20T02:08:02;101308.83;;;10.03;73.10
46682;BME280;34101;53.430;-2.224;2023-12-20T02:10:30;101311.83;;;9.79;74.56
46682;BME280;34101;53.430;-2.224;2023-12-20T02:12:59;101314.69;;;9.65;74.20
46682;BME280;34101;53.430;-2.224;2023-12-20T02:15:27;101320.03;;;9.63;74.94
46682;BME280;34101;53.430;-2.224;2023-12-20T02:17:54;101318.61;;;9.75;73.93
46682;BME280;34101;53.430;-2.224;2023-12-20T02:20:22;101309.04;;;10.08;73.01
46682;BME280;34101;53.430;-2.224;2023-12-20T02:22:49;101313.69;;;10.06;72.90
46682;BME280;34101;53.430;-2.224;2023-12-20T02:25:17;101321.27;;;9.79;73.96
46682;BME280;34101;53.430;-2.224;2023-12-20T02:27:45;101317.62;;;9.76;73.58
46682;BME280;34101;53.430;-2.224;2023-12-20T02:30:14;101318.02;;;10.13;72.92
46682;BME280;34101;53.430;-2.224;2023-12-20T02:32:42;101315.57;;;9.87;73.58
46682;BME280;34101;53.430;-2.224;2023-12-20T02:35:09;101315.33;;;10.07;72.52
46682;BME280;34101;53.430;-2.224;2023-12-20T02:37:37;101311.69;;;10.39;71.52
46682;BME280;34101;53.430;-2.224;2023-12-20T02:40:06;101312.36;;;10.34;71.83
46682;BME280;34101;53.430;-2.224;2023-12-20T02:42:34;101312.79;;;10.13;72.61
46682;BME280;34101;53.430;-2.224;2023-12-20T02:45:01;101302.43;;;10.16;72.77
46682;BME280;34101;53.430;-2.224;2023-12-20T02:47:29;101306.37;;;10.20;72.77
46682;BME280;34101;53.430;-2.224;2023-12-20T02:50:01;101289.23;;;10.00;73.46
46682;BME280;34101;53.430;-2.224;2023-12-20T02:52:29;101292.17;;;10.17;73.51
46682;BME280;34101;53.430;-2.224;2023-12-20T02:54:57;101289.91;;;10.19;72.85
46682;BME280;34101;53.430;-2.224;2023-12-20T02:57:25;101300.20;;;10.22;73.67
46682;BME280;34101;53.430;-2.224;2023-12-20T02:59:52;101298.66;;;10.56;72.64
46682;BME280;34101;53.430;-2.224;2023-12-20T03:02:20;101298.25;;;9.88;74.98
46682;BME280;34101;53.430;-2.224;2023-12-20T03:04:47;101292.63;;;10.09;74.53
46682;BME280;34101;53.430;-2.224;2023-12-20T03:07:14;101296.41;;;10.16;74.28
46682;BME280;34101;53.430;-2.224;2023-12-20T03:09:42;101291.14;;;10.09;74.72
46682;BME280;34101;53.430;-2.224;2023-12-20T03:12:09;101290.71;;;10.25;73.69
46682;BME280;34101;53.430;-2.224;2023-12-20T03:14:36;101280.74;;;9.95;75.33
46682;BME280;34101;53.430;-2.224;2023-12-20T03:17:04;101289.48;;;10.09;75.27
46682;BME280;34101;53.430;-2.224;2023-12-20T03:19:31;101286.25;;;10.27;74.27
46682;BME280;34101;53.430;-2.224;2023-12-20T03:21:59;101288.06;;;10.02;74.62
46682;BME280;34101;53.430;-2.224;2023-12-20T03:24:26;101286.46;;;10.15;74.84
46682;BME280;34101;53.430;-2.224;2023-12-20T03:26:54;101287.49;;;10.23;74.72
46682;BME280;34101;53.430;-2.224;2023-12-20T03:29:21;101285.59;;;10.06;75.15
46682;BME280;34101;53.430;-2.224;2023-12-20T03:31:49;101287.59;;;10.31;74.54
46682;BME280;34101;53.430;-2.224;2023-12-20T03:34:16;101290.19;;;10.31;74.55
46682;BME280;34101;53.430;-2.224;2023-12-20T03:36:44;101283.97;;;10.33;74.08
46682;BME280;34101;53.430;-2.224;2023-12-20T03:39:12;101288.70;;;10.48;73.89
46682;BME280;34101;53.430;-2.224;2023-12-20T03:41:39;101287.76;;;10.30;73.87
46682;BME280;34101;53.430;-2.224;2023-12-20T03:44:07;101290.16;;;10.39;73.72
46682;BME280;34101;53.430;-2.224;2023-12-20T03:46:34;101287.36;;;10.33;73.85
46682;BME280;34101;53.430;-2.224;2023-12-20T03:49:02;101286.39;;;10.71;72.90
46682;BME280;34101;53.430;-2.224;2023-12-20T03:51:29;101285.03;;;10.48;73.43
46682;BME280;34101;53.430;-2.224;2023-12-20T03:53:57;101287.43;;;10.47;73.10
46682;BME280;34101;53.430;-2.224;2023-12-20T03:56:25;101284.45;;;10.58;72.81
46682;BME280;34101;53.430;-2.224;2023-12-20T03:58:52;101283.99;;;10.30;73.33
46682;BME280;34101;53.430;-2.224;2023-12-20T04:01:20;101267.37;;;10.46;73.10
46682;BME280;34101;53.430;-2.224;2023-12-20T04:03:48;101263.13;;;10.39;73.39
46682;BME280;34101;53.430;-2.224;2023-12-20T04:06:17;101256.19;;;10.39;73.00
46682;BME280;34101;53.430;-2.224;2023-12-20T04:08:44;101250.21;;;10.63;72.54
46682;BME280;34101;53.430;-2.224;2023-12-20T04:11:11;101258.75;;;10.32;73.69
46682;BME280;34101;53.430;-2.224;2023-12-20T04:13:39;101258.49;;;10.68;72.67
46682;BME280;34101;53.430;-2.224;2023-12-20T04:16:06;101252.11;;;10.69;72.19
46682;BME280;34101;53.430;-2.224;2023-12-20T04:18:33;101249.50;;;10.32;73.66
46682;BME280;34101;53.430;-2.224;2023-12-20T04:21:01;101240.52;;;10.42;73.54
46682;BME280;34101;53.430;-2.224;2023-12-20T04:23:28;101250.21;;;10.47;73.20
46682;BME280;34101;53.430;-2.224;2023-12-20T04:25:55;101237.20;;;10.37;73.22
46682;BME280;34101;53.430;-2.224;2023-12-20T04:28:22;101236.10;;;10.47;73.17
46682;BME280;34101;53.430;-2.224;2023-12-20T04:30:50;101238.45;;;10.50;73.14
46682;BME280;34101;53.430;-2.224;2023-12-20T04:33:17;101244.49;;;10.56;73.32
46682;BME280;34101;53.430;-2.224;2023-12-20T04:35:45;101250.68;;;10.63;73.34
46682;BME280;34101;53.430;-2.224;2023-12-20T04:38:12;101246.94;;;10.58;73.40
46682;BME280;34101;53.430;-2.224;2023-12-20T04:40:40;101236.23;;;10.42;74.32
46682;BME280;34101;53.430;-2.224;2023-12-20T04:43:08;101246.06;;;10.50;74.25
46682;BME280;34101;53.430;-2.224;2023-12-20T04:45:35;101242.11;;;10.70;73.65
46682;BME280;34101;53.430;-2.224;2023-12-20T04:48:03;101250.02;;;10.40;74.75
46682;BME280;34101;53.430;-2.224;2023-12-20T04:50:31;101241.27;;;10.67;74.07
46682;BME280;34101;53.430;-2.224;2023-12-20T04:52:59;101240.26;;;10.74;73.82
46682;BME280;34101;53.430;-2.224;2023-12-20T04:55:27;101242.25;;;10.73;73.49
46682;BME280;34101;53.430;-2.224;2023-12-20T04:57:54;101245.99;;;10.63;73.81
46682;BME280;34101;53.430;-2.224;2023-12-20T05:00:23;101247.84;;;10.56;74.45
46682;BME280;34101;53.430;-2.224;2023-12-20T05:02:51;101244.68;;;10.73;73.44
46682;BME280;34101;53.430;-2.224;2023-12-20T05:05:20;101243.39;;;10.83;73.06
46682;BME280;34101;53.430;-2.224;2023-12-20T05:07:48;101235.54;;;10.65;73.87
46682;BME280;34101;53.430;-2.224;2023-12-20T05:10:15;101246.99;;;10.72;74.07
46682;BME280;34101;53.430;-2.224;2023-12-20T05:12:43;101241.43;;;10.59;74.08
46682;BME280;34101;53.430;-2.224;2023-12-20T05:15:10;101238.85;;;10.47;74.41
46682;BME280;34101;53.430;-2.224;2023-12-20T05:17:37;101236.41;;;10.74;73.83
46682;BME280;34101;53.430;-2.224;2023-12-20T05:20:06;101225.06;;;10.48;74.60
46682;BME280;34101;53.430;-2.224;2023-12-20T05:22:34;101219.60;;;10.29;75.65
46682;BME280;34101;53.430;-2.224;2023-12-20T05:25:01;101229.32;;;10.48;74.96
46682;BME280;34101;53.430;-2.224;2023-12-20T05:27:29;101232.10;;;10.61;74.22
46682;BME280;34101;53.430;-2.224;2023-12-20T05:29:57;101218.82;;;10.39;74.59
46682;BME280;34101;53.430;-2.224;2023-12-20T05:32:25;101221.70;;;10.54;74.20
46682;BME280;34101;53.430;-2.224;2023-12-20T05:34:53;101216.78;;;10.57;73.99
46682;BME280;34101;53.430;-2.224;2023-12-20T05:37:21;101229.03;;;10.70;73.39
46682;BME280;34101;53.430;-2.224;2023-12-20T05:39:48;101235.63;;;10.58;73.71
46682;BME280;34101;53.430;-2.224;2023-12-20T05:42:15;101230.55;;;10.43;74.08
46682;BME280;34101;53.430;-2.224;2023-12-20T05:44:42;101237.56;;;10.48;74.20
46682;BME280;34101;53.430;-2.224;2023-12-20T05:47:10;101235.54;;;10.53;73.71
46682;BME280;34101;53.430;-2.224;2023-12-20T05:49:37;101230.34;;;10.50;73.56
46682;BME280;34101;53.430;-2.224;2023-12-20T05:52:05;101228.64;;;10.57;73.63
46682;BME280;34101;53.430;-2.224;2023-12-20T05:54:33;101231.85;;;10.50;73.65
46682;BME280;34101;53.430;-2.224;2023-12-20T05:57:00;101229.83;;;10.56;73.72
46682;BME280;34101;53.430;-2.224;2023-12-20T05:59:27;101223.28;;;10.69;73.42
46682;BME280;34101;53.430;-2.224;2023-12-20T06:01:55;101223.01;;;10.68;73.16
46682;BME280;34101;53.430;-2.224;2023-12-20T06:04:23;101224.84;;;10.69;73.21
46682;BME280;34101;53.430;-2.224;2023-12-20T06:06:51;101216.94;;;10.65;73.53
46682;BME280;34101;53.430;-2.224;2023-12-20T06:09:18;101209.09;;;10.68;73.67
46682;BME280;34101;53.430;-2.224;2023-12-20T06:11:45;101206.85;;;10.63;73.71
46682;BME280;34101;53.430;-2.224;2023-12-20T06:14:12;101220.71;;;10.66;73.52
46682;BME280;34101;53.430;-2.224;2023-12-20T06:16:40;101213.06;;;10.60;74.05
46682;BME280;34101;53.430;-2.224;2023-12-20T06:19:07;101222.56;;;10.58;74.25
46682;BME280;34101;53.430;-2.224;2023-12-20T06:21:34;101230.53;;;10.56;74.32
46682;BME280;34101;53.430;-2.224;2023-12-20T06:24:02;101222.46;;;10.60;74.09
46682;BME280;34101;53.430;-2.224;2023-12-20T06:26:29;101214.39;;;10.32;75.53
46682;BME280;34101;53.430;-2.224;2023-12-20T06:28:57;101204.92;;;10.34;75.15
46682;BME280;34101;53.430;-2.224;2023-12-20T06:31:24;101220.25;;;10.29;75.45
46682;BME280;34101;53.430;-2.224;2023-12-20T06:33:51;101219.87;;;10.32;75.27
46682;BME280;34101;53.430;-2.224;2023-12-20T06:36:19;101227.23;;;10.40;75.10
46682;BME280;34101;53.430;-2.224;2023-12-20T06:38:47;101220.26;;;10.36;75.80
46682;BME280;34101;53.430;-2.224;2023-12-20T06:41:16;101218.34;;;10.69;74.90
46682;BME280;34101;53.430;-2.224;2023-12-20T06:43:43;101206.47;;;10.63;75.00
46682;BME280;34101;53.430;-2.224;2023-12-20T06:46:11;101216.56;;;10.55;75.38
46682;BME280;34101;53.430;-2.224;2023-12-20T06:48:38;101219.32;;;10.75;75.06
46682;BME280;34101;53.430;-2.224;2023-12-20T06:51:06;101217.83;;;10.37;75.83
46682;BME280;34101;53.430;-2.224;2023-12-20T06:53:34;101230.57;;;10.46;75.61
46682;BME280;34101;53.430;-2.224;2023-12-20T06:56:01;101225.39;;;10.21;78.08
46682;BME280;34101;53.430;-2.224;2023-12-20T06:58:28;101227.42;;;10.24;79.16
46682;BME280;34101;53.430;-2.224;2023-12-20T07:00:56;101224.31;;;10.48;78.64
46682;BME280;34101;53.430;-2.224;2023-12-20T07:03:23;101233.22;;;10.23;79.23
46682;BME280;34101;53.430;-2.224;2023-12-20T07:05:50;101241.97;;;10.22;79.34
46682;BME280;34101;53.430;-2.224;2023-12-20T07:08:18;101237.16;;;10.04;79.92
46682;BME280;34101;53.430;-2.224;2023-12-20T07:10:45;101238.79;;;9.97;79.27
46682;BME280;34101;53.430;-2.224;2023-12-20T07:13:13;101231.55;;;9.92;78.49
46682;BME280;34101;53.430;-2.224;2023-12-20T07:15:41;101220.95;;;9.92;78.78
46682;BME280;34101;53.430;-2.224;2023-12-20T07:18:09;101215.39;;;9.63;79.31
46682;BME280;34101;53.430;-2.224;2023-12-20T07:20:36;101226.48;;;9.96;78.79
46682;BME280;34101;53.430;-2.224;2023-12-20T07:23:04;101226.77;;;9.94;78.66
46682;BME280;34101;53.430;-2.224;2023-12-20T07:25:32;101228.76;;;10.08;78.33
46682;BME280;34101;53.430;-2.224;2023-12-20T07:27:59;101226.97;;;10.12;78.67
46682;BME280;34101;53.430;-2.224;2023-12-20T07:30:27;101226.33;;;10.19;79.69
46682;BME280;34101;53.430;-2.224;2023-12-20T07:32:54;101234.91;;;10.15;78.85
46682;BME280;34101;53.430;-2.224;2023-12-20T07:35:22;101239.89;;;10.26;78.32
46682;BME280;34101;53.430;-2.224;2023-12-20T07:37:50;101235.67;;;10.32;78.67
46682;BME280;34101;53.430;-2.224;2023-12-20T07:40:17;101229.25;;;10.20;78.76
46682;BME280;34101;53.430;-2.224;2023-12-20T07:42:44;101220.24;;;10.35;78.32
46682;BME280;34101;53.430;-2.224;2023-12-20T07:45:12;101224.00;;;10.42;77.62
46682;BME280;34101;53.430;-2.224;2023-12-20T07:47:39;101217.01;;;10.22;78.94
46682;BME280;34101;53.430;-2.224;2023-12-20T07:50:07;101219.41;;;9.95;80.41
46682;BME280;34101;53.430;-2.224;2023-12-20T07:52:34;101226.78;;;10.15;78.73
46682;BME280;34101;53.430;-2.224;2023-12-20T07:55:02;101219.69;;;9.98;79.67
46682;BME280;34101;53.430;-2.224;2023-12-20T07:57:29;101219.55;;;10.35;78.69
46682;BME280;34101;53.430;-2.224;2023-12-20T07:59:56;101213.52;;;10.02;79.71
46682;BME280;34101;53.430;-2.224;2023-12-20T08:02:24;101203.47;;;10.38;78.50
46682;BME280;34101;53.430;-2.224;2023-12-20T08:04:51;101206.20;;;10.37;78.33
46682;BME280;34101;53.430;-2.224;2023-12-20T08:07:19;101211.55;;;10.46;78.07
46682;BME280;34101;53.430;-2.224;2023-12-20T08:09:46;101212.17;;;10.41;77.85
46682;BME280;34101;53.430;-2.224;2023-12-20T08:12:13;101221.24;;;10.31;78.31
46682;BME280;34101;53.430;-2.224;2023-12-20T08:14:41;101215.58;;;10.36;77.81
46682;BME280;34101;53.430;-2.224;2023-12-20T08:17:08;101223.45;;;10.24;77.89
46682;BME280;34101;53.430;-2.224;2023-12-20T08:19:35;101215.70;;;10.39;77.39
46682;BME280;34101;53.430;-2.224;2023-12-20T08:22:03;101224.15;;;10.14;78.05
46682;BME280;34101;53.430;-2.224;2023-12-20T08:24:30;101215.37;;;10.42;77.15
46682;BME280;34101;53.430;-2.224;2023-12-20T08:26:59;101213.40;;;10.32;77.09
46682;BME280;34101;53.430;-2.224;2023-12-20T08:29:26;101207.69;;;10.38;77.75
46682;BME280;34101;53.430;-2.224;2023-12-20T08:31:55;101215.65;;;10.37;77.40
46682;BME280;34101;53.430;-2.224;2023-12-20T08:34:22;101219.20;;;10.33;77.72
46682;BME280;34101;53.430;-2.224;2023-12-20T08:36:50;101222.83;;;10.22;78.63
46682;BME280;34101;53.430;-2.224;2023-12-20T08:39:19;101215.86;;;10.47;77.83
46682;BME280;34101;53.430;-2.224;2023-12-20T08:41:46;101226.81;;;10.66;77.36
46682;BME280;34101;53.430;-2.224;2023-12-20T08:44:13;101225.12;;;10.41;78.39
46682;BME280;34101;53.430;-2.224;2023-12-20T08:46:41;101234.38;;;10.74;77.46
46682;BME280;34101;53.430;-2.224;2023-12-20T08:49:08;101238.56;;;10.71;77.34
46682;BME280;34101;53.430;-2.224;2023-12-20T08:51:35;101238.51;;;10.89;76.85
46682;BME280;34101;53.430;-2.224;2023-12-20T08:54:03;101242.22;;;10.85;77.09
46682;BME280;34101;53.430;-2.224;2023-12-20T08:56:30;101239.19;;;10.54;78.17
46682;BME280;34101;53.430;-2.224;2023-12-20T08:58:58;101237.43;;;10.75;78.16
46682;BME280;34101;53.430;-2.224;2023-12-20T09:01:26;101228.49;;;10.76;78.75
46682;BME280;34101;53.430;-2.224;2023-12-20T09:03:53;101226.97;;;10.95;77.80
46682;BME280;34101;53.430;-2.224;2023-12-20T09:06:21;101224.75;;;10.76;78.47
46682;BME280;34101;53.430;-2.224;2023-12-20T09:08:48;101221.86;;;10.49;80.05
46682;BME280;34101;53.430;-2.224;2023-12-20T09:11:16;101227.39;;;10.27;81.01
46682;BME280;34101;53.430;-2.224;2023-12-20T09:13:43;101223.56;;;10.37;80.51
46682;BME280;34101;53.430;-2.224;2023-12-20T09:16:11;101223.60;;;10.44;80.50
46682;BME280;34101;53.430;-2.224;2023-12-20T09:18:38;101218.92;;;10.66;80.20
46682;BME280;34101;53.430;-2.224;2023-12-20T09:21:05;101215.74;;;10.57;80.85
46682;BME280;34101;53.430;-2.224;2023-12-20T09:23:33;101209.10;;;10.66;80.37
46682;BME280;34101;53.430;-2.224;2023-12-20T09:26:00;101198.23;;;10.74;80.37
46682;BME280;34101;53.430;-2.224;2023-12-20T09:28:28;101198.35;;;10.68;80.30
46682;BME280;34101;53.430;-2.224;2023-12-20T09:30:55;101201.73;;;10.74;80.46
46682;BME280;34101;53.430;-2.224;2023-12-20T09:33:22;101207.45;;;10.57;81.03
46682;BME280;34101;53.430;-2.224;2023-12-20T09:35:50;101203.78;;;10.31;82.27
46682;BME280;34101;53.430;-2.224;2023-12-20T09:38:17;101204.46;;;10.56;82.48
46682;BME280;34101;53.430;-2.224;2023-12-20T09:40:44;101204.92;;;10.76;81.27
46682;BME280;34101;53.430;-2.224;2023-12-20T09:43:15;101200.79;;;10.27;83.61
46682;BME280;34101;53.430;-2.224;2023-12-20T09:45:46;101206.60;;;10.51;83.04
46682;BME280;34101;53.430;-2.224;2023-12-20T09:48:14;101206.09;;;10.58;83.08
46682;BME280;34101;53.430;-2.224;2023-12-20T09:50:44;101196.25;;;10.43;83.66
46682;BME280;34101;53.430;-2.224;2023-12-20T09:53:16;101196.60;;;10.51;83.67
46682;BME280;34101;53.430;-2.224;2023-12-20T09:55:45;101188.70;;;10.16;85.27
46682;BME280;34101;53.430;-2.224;2023-12-20T09:58:12;101183.24;;;10.39;84.56
46682;BME280;34101;53.430;-2.224;2023-12-20T10:00:40;101189.13;;;10.45;83.91
46682;BME280;34101;53.430;-2.224;2023-12-20T10:03:08;101190.61;;;10.19;85.40
46682;BME280;34101;53.430;-2.224;2023-12-20T10:05:37;101185.19;;;10.29;85.86
46682;BME280;34101;53.430;-2.224;2023-12-20T10:08:07;101179.16;;;10.33;85.84
46682;BME280;34101;53.430;-2.224;2023-12-20T10:10:34;101170.17;;;10.27;86.51
46682;BME280;34101;53.430;-2.224;2023-12-20T10:13:03;101162.58;;;10.31;85.66
46682;BME280;34101;53.430;-2.224;2023-12-20T10:15:32;101169.17;;;10.16;87.02
46682;BME280;34101;53.430;-2.224;2023-12-20T10:18:00;101149.39;;;10.30;86.63
46682;BME280;34101;53.430;-2.224;2023-12-20T10:20:28;101163.78;;;10.23;87.65
46682;BME280;34101;53.430;-2.224;2023-12-20T10:22:56;101155.15;;;10.09;88.05
46682;BME280;34101;53.430;-2.224;2023-12-20T10:25:25;101143.84;;;9.88;88.52
46682;BME280;34101;53.430;-2.224;2023-12-20T10:28:10;101141.53;;;10.47;87.79
46682;BME280;34101;53.430;-2.224;2023-12-20T10:30:38;101127.81;;;9.88;89.33
46682;BME280;34101;53.430;-2.224;2023-12-20T10:33:06;101132.95;;;9.68;89.97
46682;BME280;34101;53.430;-2.224;2023-12-20T10:35:34;101129.83;;;10.16;88.93
46682;BME280;34101;53.430;-2.224;2023-12-20T10:38:04;101124.70;;;10.44;87.54
46682;BME280;34101;53.430;-2.224;2023-12-20T10:40:34;101126.18;;;10.06;88.03
46682;BME280;34101;53.430;-2.224;2023-12-20T10:43:03;101123.35;;;10.21;87.99
46682;BME280;34101;53.430;-2.224;2023-12-20T10:45:31;101120.69;;;10.26;86.91
46682;BME280;34101;53.430;-2.224;2023-12-20T10:47:59;101105.21;;;10.38;86.85
46682;BME280;34101;53.430;-2.224;2023-12-20T10:50:27;101106.30;;;10.29;86.64
46682;BME280;34101;53.430;-2.224;2023-12-20T10:52:55;101105.33;;;10.40;85.51
46682;BME280;34101;53.430;-2.224;2023-12-20T10:55:24;101105.22;;;10.49;85.23
46682;BME280;34101;53.430;-2.224;2023-12-20T10:57:52;101092.28;;;10.33;85.83
46682;BME280;34101;53.430;-2.224;2023-12-20T11:00:23;101094.97;;;10.58;85.15
46682;BME280;34101;53.430;-2.224;2023-12-20T11:02:51;101091.61;;;10.60;84.41
46682;BME280;34101;53.430;-2.224;2023-12-20T11:05:31;101087.35;;;10.64;83.98
46682;BME280;34101;53.430;-2.224;2023-12-20T11:08:07;101079.84;;;10.39;84.58
46682;BME280;34101;53.430;-2.224;2023-12-20T11:10:39;101086.08;;;10.64;83.86
46682;BME280;34101;53.430;-2.224;2023-12-20T11:13:17;101080.56;;;10.73;83.73
46682;BME280;34101;53.430;-2.224;2023-12-20T11:15:47;101065.42;;;10.35;83.98
46682;BME280;34101;53.430;-2.224;2023-12-20T11:18:16;101062.71;;;10.85;82.64
46682;BME280;34101;53.430;-2.224;2023-12-20T11:20:43;101067.79;;;11.05;81.63
46682;BME280;34101;53.430;-2.224;2023-12-20T11:23:10;101059.09;;;11.07;81.78
46682;BME280;34101;53.430;-2.224;2023-12-20T11:25:55;101061.65;;;11.24;81.22
46682;BME280;34101;53.430;-2.224;2023-12-20T11:28:24;101056.76;;;11.14;80.98
46682;BME280;34101;53.430;-2.224;2023-12-20T11:30:53;101051.94;;;11.14;81.01
46682;BME280;34101;53.430;-2.224;2023-12-20T11:33:22;101046.49;;;11.06;81.61
46682;BME280;34101;53.430;-2.224;2023-12-20T11:35:51;101032.39;;;11.23;81.25
46682;BME280;34101;53.430;-2.224;2023-12-20T11:38:21;101028.01;;;11.30;80.25
46682;BME280;34101;53.430;-2.224;2023-12-20T11:40:49;101024.89;;;11.02;82.05
46682;BME280;34101;53.430;-2.224;2023-12-20T11:43:30;101033.87;;;11.33;80.55
46682;BME280;34101;53.430;-2.224;2023-12-20T11:46:03;101012.01;;;11.53;80.02
46682;BME280;34101;53.430;-2.224;2023-12-20T11:48:30;101011.19;;;10.96;81.65
46682;BME280;34101;53.430;-2.224;2023-12-20T11:50:59;101015.50;;;11.44;80.39
46682;BME280;34101;53.430;-2.224;2023-12-20T11:53:26;101009.55;;;11.22;80.56
46682;BME280;34101;53.430;-2.224;2023-12-20T11:55:54;101010.79;;;11.10;81.36
46682;BME280;34101;53.430;-2.224;2023-12-20T11:58:22;101019.32;;;11.36;80.02
46682;BME280;34101;53.430;-2.224;2023-12-20T12:00:50;101012.36;;;11.18;80.91
46682;BME280;34101;53.430;-2.224;2023-12-20T12:03:17;101008.61;;;11.33;80.59
46682;BME280;34101;53.430;-2.224;2023-12-20T12:05:47;100995.40;;;11.30;80.14
46682;BME280;34101;53.430;-2.224;2023-12-20T12:08:15;100997.92;;;10.69;82.29
46682;BME280;34101;53.430;-2.224;2023-12-20T12:10:43;100990.98;;;10.82;82.44
46682;BME280;34101;53.430;-2.224;2023-12-20T12:13:11;100989.30;;;10.82;82.96
46682;BME280;34101;53.430;-2.224;2023-12-20T12:15:40;100976.76;;;10.61;83.14
46682;BME280;34101;53.430;-2.224;2023-12-20T12:18:07;100992.59;;;10.87;82.65
46682;BME280;34101;53.430;-2.224;2023-12-20T12:20:35;100975.46;;;11.01;81.92
46682;BME280;34101;53.430;-2.224;2023-12-20T12:23:04;100971.37;;;11.12;82.00
46682;BME280;34101;53.430;-2.224;2023-12-20T12:25:34;100961.94;;;11.31;81.25
46682;BME280;34101;53.430;-2.224;2023-12-20T12:28:03;100955.90;;;11.24;81.56
46682;BME280;34101;53.430;-2.224;2023-12-20T12:30:36;100955.08;;;10.82;82.69
46682;BME280;34101;53.430;-2.224;2023-12-20T12:33:04;100944.61;;;10.81;83.13
46682;BME280;34101;53.430;-2.224;2023-12-20T12:35:31;100943.82;;;11.00;82.46
46682;BME280;34101;53.430;-2.224;2023-12-20T12:37:59;100919.49;;;10.80;83.20
46682;BME280;34101;53.430;-2.224;2023-12-20T12:40:27;100945.78;;;11.26;82.42
46682;BME280;34101;53.430;-2.224;2023-12-20T12:42:55;100922.41;;;11.23;82.00
46682;BME280;34101;53.430;-2.224;2023-12-20T12:45:22;100908.29;;;11.13;82.32
46682;BME280;34101;53.430;-2.224;2023-12-20T12:47:50;100911.26;;;10.94;83.41